Pretty Hana — DSQJ5 — position and weather

sailwx.info

Track history (hours):
 
Tides and Currents Weather Stations Pressure Air Temp Water Temp Dewpoint Dewpoint Depression Visibility Wind Speed Wind Dir Waves Ship Positions

Pretty Hana

Last reported at 2014-Sep-15 03:33 UTC. Time now 2014-Oct-01 22:25 UTC.
Position N 31°23' E 121°36'.
Warning: this ship's position is 16 days out of date.

Length 65 m; draft 4.5 m.

Type: Cargo ship. MMSI: 441600000.

Date/timePositionNaut miles runAvg speedWind from/ knotsBaromVisibWave heightAir tempDewpointWater temp
2014-Sep-15 03:33N 31°23' E 121°36'10 9.8
2014-Sep-15 02:31N 31°29' E 121°26'26 2.0
2014-Sep-14 13:27N 31°45' E 121°02'0 0.0
2014-Sep-14 11:28N 31°45' E 121°02'3 0.1
2014-Sep-13 11:16N 31°47' E 121°04'7 7.0
2014-Sep-13 10:13N 31°41' E 121°10'6 9.6
2014-Sep-13 09:33N 31°37' E 121°16'1010.2
2014-Sep-13 08:33N 31°31' E 121°25'10 9.5
2014-Sep-13 07:33N 31°24' E 121°33'9 8.8
2014-Sep-13 06:33N 31°20' E 121°42'  
2014-Sep-10 09:13N 34°35' E 134°53'710.7
2014-Sep-10 08:31N 34°37' E 135°01'8 8.1
2014-Sep-10 07:33N 34°35' E 135°10'10 9.9
2014-Sep-10 06:33N 34°33' E 135°22'3 0.6
2014-Sep-10 01:18N 34°33' E 135°26'0 0.0
2014-Sep-10 00:31N 34°33' E 135°26'1 1.3
2014-Sep-09 23:33N 34°33' E 135°24'1 0.6
2014-Sep-09 21:34N 34°34' E 135°23'0 0.0
2014-Sep-09 20:28N 34°34' E 135°23'9 9.9
2014-Sep-09 19:33N 34°34' E 135°12'  
2014-Sep-06 06:19N 34°13' E 132°15'0 0.0
2014-Sep-06 05:30N 34°13' E 132°15'0 0.0
2014-Sep-06 03:30N 34°13' E 132°15'8 0.5
2014-Sep-05 10:33N 34°07' E 132°21'  
Track history (hours):
 
Tides and Currents Weather Stations Pressure Air Temp Water Temp Dewpoint Dewpoint Depression Visibility Wind Speed Wind Dir Waves Ship Positions

Pretty Hana

Last reported at 2014-Sep-15 03:33 UTC. Time now 2014-Oct-01 22:25 UTC.
Position N 31°23' E 121°36'.
Warning: this ship's position is 16 days out of date.

Length 65 m; draft 4.5 m.

Type: Cargo ship. MMSI: 441600000.

Date/timePositionNaut miles runAvg speedWind from/ knotsBaromVisibWave heightAir tempDewpointWater temp
2014-Sep-15 03:33N 31°23' E 121°36'10 9.8
2014-Sep-15 02:31N 31°29' E 121°26'26 2.0
2014-Sep-14 13:27N 31°45' E 121°02'0 0.0
2014-Sep-14 11:28N 31°45' E 121°02'3 0.1
2014-Sep-13 11:16N 31°47' E 121°04'7 7.0
2014-Sep-13 10:13N 31°41' E 121°10'6 9.6
2014-Sep-13 09:33N 31°37' E 121°16'1010.2
2014-Sep-13 08:33N 31°31' E 121°25'10 9.5
2014-Sep-13 07:33N 31°24' E 121°33'9 8.8
2014-Sep-13 06:33N 31°20' E 121°42'  
2014-Sep-10 09:13N 34°35' E 134°53'710.7
2014-Sep-10 08:31N 34°37' E 135°01'8 8.1
2014-Sep-10 07:33N 34°35' E 135°10'10 9.9
2014-Sep-10 06:33N 34°33' E 135°22'3 0.6
2014-Sep-10 01:18N 34°33' E 135°26'0 0.0
2014-Sep-10 00:31N 34°33' E 135°26'1 1.3
2014-Sep-09 23:33N 34°33' E 135°24'1 0.6
2014-Sep-09 21:34N 34°34' E 135°23'0 0.0
2014-Sep-09 20:28N 34°34' E 135°23'9 9.9
2014-Sep-09 19:33N 34°34' E 135°12'  
2014-Sep-06 06:19N 34°13' E 132°15'0 0.0
2014-Sep-06 05:30N 34°13' E 132°15'0 0.0
2014-Sep-06 03:30N 34°13' E 132°15'8 0.5
2014-Sep-05 10:33N 34°07' E 132°21'  

Dump ship's entire track history